sensor_id;sensor_type;location;lat;lon;timestamp;pressure;altitude;pressure_sealevel;temperature;humidity
3096;BME280;1558;42.700;23.360;2023-04-01T00:01:13;94434.88;;;9.89;88.69
3096;BME280;1558;42.700;23.360;2023-04-01T00:03:41;94454.66;;;9.96;89.68
3096;BME280;1558;42.700;23.360;2023-04-01T00:06:15;94436.50;;;9.93;90.25
3096;BME280;1558;42.700;23.360;2023-04-01T00:08:50;94449.69;;;9.98;89.64
3096;BME280;1558;42.700;23.360;2023-04-01T00:11:24;94455.09;;;9.98;89.94
3096;BME280;1558;42.700;23.360;2023-04-01T00:14:01;94467.25;;;9.92;90.51
3096;BME280;1558;42.700;23.360;2023-04-01T00:16:32;94459.59;;;9.94;90.89
3096;BME280;1558;42.700;23.360;2023-04-01T00:19:03;94462.72;;;9.96;90.61
3096;BME280;1558;42.700;23.360;2023-04-01T00:21:37;94447.63;;;9.76;90.95
3096;BME280;1558;42.700;23.360;2023-04-01T00:24:06;94446.66;;;9.84;91.44
3096;BME280;1558;42.700;23.360;2023-04-01T00:26:45;94416.09;;;9.77;91.07
3096;BME280;1558;42.700;23.360;2023-04-01T00:29:16;94451.88;;;9.93;90.59
3096;BME280;1558;42.700;23.360;2023-04-01T00:31:46;94447.00;;;9.83;90.28
3096;BME280;1558;42.700;23.360;2023-04-01T00:34:18;94375.50;;;9.23;90.42
3096;BME280;1558;42.700;23.360;2023-04-01T00:36:53;94447.25;;;9.62;91.47
3096;BME280;1558;42.700;23.360;2023-04-01T00:39:22;94435.94;;;9.41;91.20
3096;BME280;1558;42.700;23.360;2023-04-01T00:41:50;94439.25;;;9.50;92.41
3096;BME280;1558;42.700;23.360;2023-04-01T00:44:23;94438.63;;;9.41;93.27
3096;BME280;1558;42.700;23.360;2023-04-01T00:47:00;94428.31;;;9.43;93.64
3096;BME280;1558;42.700;23.360;2023-04-01T00:49:51;94415.81;;;9.50;93.54
3096;BME280;1558;42.700;23.360;2023-04-01T00:52:29;94419.28;;;9.51;93.87
3096;BME280;1558;42.700;23.360;2023-04-01T00:55:03;94407.22;;;9.61;93.77
3096;BME280;1558;42.700;23.360;2023-04-01T00:57:42;94414.00;;;9.70;93.75
3096;BME280;1558;42.700;23.360;2023-04-01T01:00:23;94402.47;;;9.70;93.33
3096;BME280;1558;42.700;23.360;2023-04-01T01:03:11;94395.50;;;9.69;93.14
3096;BME280;1558;42.700;23.360;2023-04-01T01:26:09;94371.25;;;9.84;91.54
3096;BME280;1558;42.700;23.360;2023-04-01T01:32:17;94363.34;;;9.91;92.02
3096;BME280;1558;42.700;23.360;2023-04-01T01:35:24;94363.06;;;9.96;91.20
3096;BME280;1558;42.700;23.360;2023-04-01T01:38:04;94341.44;;;9.93;91.01
3096;BME280;1558;42.700;23.360;2023-04-01T01:40:45;94351.97;;;9.98;90.44
3096;BME280;1558;42.700;23.360;2023-04-01T01:43:25;94344.06;;;9.89;90.61
3096;BME280;1558;42.700;23.360;2023-04-01T01:46:01;94338.34;;;9.75;90.69
3096;BME280;1558;42.700;23.360;2023-04-01T01:48:35;94347.25;;;9.95;90.54
3096;BME280;1558;42.700;23.360;2023-04-01T01:51:31;94351.59;;;9.99;90.24
3096;BME280;1558;42.700;23.360;2023-04-01T01:54:15;94348.75;;;9.92;89.91
3096;BME280;1558;42.700;23.360;2023-04-01T01:56:54;94307.00;;;9.67;90.17
3096;BME280;1558;42.700;23.360;2023-04-01T01:59:45;94341.09;;;9.94;89.72
3096;BME280;1558;42.700;23.360;2023-04-01T02:02:20;94329.63;;;9.97;89.23
3096;BME280;1558;42.700;23.360;2023-04-01T02:04:58;94333.75;;;10.10;88.41
3096;BME280;1558;42.700;23.360;2023-04-01T02:07:41;94339.41;;;10.21;88.46
3096;BME280;1558;42.700;23.360;2023-04-01T02:10:18;94340.19;;;10.22;88.36
3096;BME280;1558;42.700;23.360;2023-04-01T02:12:51;94306.81;;;10.10;88.87
3096;BME280;1558;42.700;23.360;2023-04-01T02:15:24;94318.50;;;10.14;88.64
3096;BME280;1558;42.700;23.360;2023-04-01T02:18:07;94315.44;;;10.16;89.41
3096;BME280;1558;42.700;23.360;2023-04-01T02:20:53;94320.56;;;10.05;89.77
3096;BME280;1558;42.700;23.360;2023-04-01T02:23:37;94298.09;;;9.98;90.57
3096;BME280;1558;42.700;23.360;2023-04-01T02:26:20;94309.63;;;9.98;89.79
3096;BME280;1558;42.700;23.360;2023-04-01T02:29:05;94309.88;;;10.09;89.75
3096;BME280;1558;42.700;23.360;2023-04-01T02:31:40;94312.13;;;10.07;90.11
3096;BME280;1558;42.700;23.360;2023-04-01T02:34:15;94303.69;;;10.08;90.17
3096;BME280;1558;42.700;23.360;2023-04-01T02:36:45;94295.13;;;10.03;89.66
3096;BME280;1558;42.700;23.360;2023-04-01T02:39:31;94283.31;;;9.92;89.75
3096;BME280;1558;42.700;23.360;2023-04-01T02:42:02;94319.97;;;10.12;89.69
3096;BME280;1558;42.700;23.360;2023-04-01T02:44:56;94326.72;;;10.06;89.43
3096;BME280;1558;42.700;23.360;2023-04-01T02:47:31;94296.47;;;9.78;89.95
3096;BME280;1558;42.700;23.360;2023-04-01T02:50:20;94340.41;;;9.97;89.03
3096;BME280;1558;42.700;23.360;2023-04-01T02:52:52;94337.66;;;9.78;89.64
3096;BME280;1558;42.700;23.360;2023-04-01T02:55:32;94339.22;;;9.64;89.89
3096;BME280;1558;42.700;23.360;2023-04-01T02:58:11;94347.50;;;9.55;90.57
3096;BME280;1558;42.700;23.360;2023-04-01T03:01:02;94339.25;;;9.48;91.46
3096;BME280;1558;42.700;23.360;2023-04-01T03:03:49;94348.69;;;9.42;91.92
3096;BME280;1558;42.700;23.360;2023-04-01T03:06:52;94369.25;;;9.34;93.17
3096;BME280;1558;42.700;23.360;2023-04-01T03:09:33;94363.78;;;9.31;93.76
3096;BME280;1558;42.700;23.360;2023-04-01T03:12:26;94344.41;;;9.10;94.70
3096;BME280;1558;42.700;23.360;2023-04-01T03:15:13;94348.59;;;9.23;95.18
3096;BME280;1558;42.700;23.360;2023-04-01T03:18:11;94347.72;;;9.19;94.86
3096;BME280;1558;42.700;23.360;2023-04-01T03:23:18;94307.94;;;8.81;95.80
3096;BME280;1558;42.700;23.360;2023-04-01T03:25:59;94358.31;;;9.12;96.29
3096;BME280;1558;42.700;23.360;2023-04-01T03:28:34;94361.59;;;9.21;96.36
3096;BME280;1558;42.700;23.360;2023-04-01T03:31:19;94364.41;;;9.24;96.36
3096;BME280;1558;42.700;23.360;2023-04-01T03:34:05;94362.66;;;9.32;95.58
3096;BME280;1558;42.700;23.360;2023-04-01T03:37:25;94371.78;;;9.43;96.32
3096;BME280;1558;42.700;23.360;2023-04-01T03:40:15;94357.03;;;9.52;95.97
3096;BME280;1558;42.700;23.360;2023-04-01T03:42:58;94354.78;;;9.54;95.59
3096;BME280;1558;42.700;23.360;2023-04-01T03:45:46;94348.09;;;9.64;97.16
3096;BME280;1558;42.700;23.360;2023-04-01T03:48:18;94350.19;;;9.55;97.16
3096;BME280;1558;42.700;23.360;2023-04-01T03:53:25;94306.38;;;9.58;97.24
3096;BME280;1558;42.700;23.360;2023-04-01T03:55:58;94299.03;;;9.55;97.03
3096;BME280;1558;42.700;23.360;2023-04-01T03:58:29;94286.00;;;9.57;97.51
3096;BME280;1558;42.700;23.360;2023-04-01T04:01:16;94266.38;;;9.57;97.32
3096;BME280;1558;42.700;23.360;2023-04-01T04:04:01;94256.44;;;9.61;97.01
3096;BME280;1558;42.700;23.360;2023-04-01T04:06:42;94253.50;;;9.66;97.41
3096;BME280;1558;42.700;23.360;2023-04-01T04:09:24;94236.41;;;9.58;98.89
3096;BME280;1558;42.700;23.360;2023-04-01T04:12:23;94185.41;;;9.30;99.13
3096;BME280;1558;42.700;23.360;2023-04-01T04:14:55;94203.28;;;9.38;98.51
3096;BME280;1558;42.700;23.360;2023-04-01T04:17:43;94238.94;;;9.51;97.96
3096;BME280;1558;42.700;23.360;2023-04-01T04:20:28;94225.16;;;9.37;98.82
3096;BME280;1558;42.700;23.360;2023-04-01T04:23:02;94240.59;;;9.40;99.76
3096;BME280;1558;42.700;23.360;2023-04-01T04:25:34;94220.16;;;9.20;99.54
3096;BME280;1558;42.700;23.360;2023-04-01T04:28:12;94211.94;;;9.13;99.75
3096;BME280;1558;42.700;23.360;2023-04-01T04:30:50;94175.31;;;8.93;100.00
3096;BME280;1558;42.700;23.360;2023-04-01T04:33:36;94222.75;;;9.16;99.46
3096;BME280;1558;42.700;23.360;2023-04-01T04:40:02;94198.13;;;8.99;100.00
3096;BME280;1558;42.700;23.360;2023-04-01T04:43:11;94213.31;;;8.91;100.00
3096;BME280;1558;42.700;23.360;2023-04-01T04:45:44;94168.91;;;8.66;100.00
3096;BME280;1558;42.700;23.360;2023-04-01T04:48:24;94170.28;;;8.75;100.00
3096;BME280;1558;42.700;23.360;2023-04-01T04:51:02;94193.88;;;8.98;100.00
3096;BME280;1558;42.700;23.360;2023-04-01T04:53:47;94198.47;;;9.13;100.00
3096;BME280;1558;42.700;23.360;2023-04-01T04:56:34;94173.72;;;9.23;100.00
3096;BME280;1558;42.700;23.360;2023-04-01T04:59:05;94174.03;;;9.37;100.00
3096;BME280;1558;42.700;23.360;2023-04-01T05:01:37;94181.66;;;9.50;100.00
3096;BME280;1558;42.700;23.360;2023-04-01T05:04:07;94184.41;;;9.54;100.00
3096;BME280;1558;42.700;23.360;2023-04-01T05:06:58;94154.91;;;9.42;99.87
3096;BME280;1558;42.700;23.360;2023-04-01T05:09:32;94177.31;;;9.65;99.34
3096;BME280;1558;42.700;23.360;2023-04-01T05:12:19;94169.13;;;9.77;98.12
3096;BME280;1558;42.700;23.360;2023-04-01T05:15:07;94087.72;;;9.45;98.02
3096;BME280;1558;42.700;23.360;2023-04-01T05:17:47;94143.06;;;9.81;97.34
3096;BME280;1558;42.700;23.360;2023-04-01T05:20:28;94138.94;;;9.68;96.00
3096;BME280;1558;42.700;23.360;2023-04-01T05:23:47;94153.59;;;9.71;94.69
3096;BME280;1558;42.700;23.360;2023-04-01T05:26:37;94144.00;;;9.89;93.45
3096;BME280;1558;42.700;23.360;2023-04-01T05:29:49;94130.03;;;10.22;91.11
3096;BME280;1558;42.700;23.360;2023-04-01T05:32:39;94139.19;;;10.40;89.30
3096;BME280;1558;42.700;23.360;2023-04-01T05:35:41;94142.59;;;10.82;88.35
3096;BME280;1558;42.700;23.360;2023-04-01T05:38:32;94143.28;;;11.24;84.55
3096;BME280;1558;42.700;23.360;2023-04-01T05:41:18;94136.72;;;10.99;83.37
3096;BME280;1558;42.700;23.360;2023-04-01T05:44:10;94139.78;;;11.76;83.59
3096;BME280;1558;42.700;23.360;2023-04-01T05:47:01;94144.72;;;12.37;79.34
3096;BME280;1558;42.700;23.360;2023-04-01T05:49:51;94145.50;;;13.22;78.67
3096;BME280;1558;42.700;23.360;2023-04-01T05:52:22;94129.78;;;14.24;75.75
3096;BME280;1558;42.700;23.360;2023-04-01T05:54:50;94127.56;;;14.54;70.86
3096;BME280;1558;42.700;23.360;2023-04-01T05:57:19;94105.88;;;14.65;67.50
3096;BME280;1558;42.700;23.360;2023-04-01T05:59:47;94118.69;;;15.24;65.87
3096;BME280;1558;42.700;23.360;2023-04-01T06:02:17;94113.19;;;15.74;64.33
3096;BME280;1558;42.700;23.360;2023-04-01T06:04:46;94121.28;;;15.91;61.84
3096;BME280;1558;42.700;23.360;2023-04-01T06:07:15;94127.22;;;15.23;62.38
3096;BME280;1558;42.700;23.360;2023-04-01T06:09:45;94120.19;;;14.51;63.06
3096;BME280;1558;42.700;23.360;2023-04-01T06:12:32;94123.47;;;13.95;64.91
3096;BME280;1558;42.700;23.360;2023-04-01T06:15:23;94111.69;;;14.74;65.17
3096;BME280;1558;42.700;23.360;2023-04-01T06:20:50;94115.91;;;14.40;63.43
3096;BME280;1558;42.700;23.360;2023-04-01T06:23:38;94111.50;;;14.03;64.83
3096;BME280;1558;42.700;23.360;2023-04-01T06:26:25;94128.56;;;14.07;65.49
3096;BME280;1558;42.700;23.360;2023-04-01T06:29:38;94124.63;;;13.94;66.43
3096;BME280;1558;42.700;23.360;2023-04-01T06:32:36;94123.97;;;14.18;67.24
3096;BME280;1558;42.700;23.360;2023-04-01T06:35:19;94115.56;;;14.59;65.15
3096;BME280;1558;42.700;23.360;2023-04-01T06:38:19;94104.66;;;14.41;65.32
3096;BME280;1558;42.700;23.360;2023-04-01T06:41:04;94091.44;;;14.29;64.81
3096;BME280;1558;42.700;23.360;2023-04-01T06:43:42;94104.13;;;13.97;65.75
3096;BME280;1558;42.700;23.360;2023-04-01T06:46:18;94030.16;;;13.10;66.76
3096;BME280;1558;42.700;23.360;2023-04-01T06:48:59;94102.31;;;13.43;68.18
3096;BME280;1558;42.700;23.360;2023-04-01T06:51:34;94088.81;;;13.53;69.24
3096;BME280;1558;42.700;23.360;2023-04-01T06:54:10;94090.41;;;13.58;69.33
3096;BME280;1558;42.700;23.360;2023-04-01T06:56:42;94086.94;;;13.65;69.48
3096;BME280;1558;42.700;23.360;2023-04-01T06:59:15;94075.38;;;13.75;69.95
3096;BME280;1558;42.700;23.360;2023-04-01T07:01:49;94057.88;;;13.54;70.33
3096;BME280;1558;42.700;23.360;2023-04-01T07:04:20;94063.63;;;13.46;71.00
3096;BME280;1558;42.700;23.360;2023-04-01T07:06:53;94076.81;;;13.51;71.49
3096;BME280;1558;42.700;23.360;2023-04-01T07:09:26;94063.66;;;13.53;71.69
3096;BME280;1558;42.700;23.360;2023-04-01T07:12:00;94080.00;;;13.71;71.89
3096;BME280;1558;42.700;23.360;2023-04-01T07:14:33;94073.16;;;14.01;72.48
3096;BME280;1558;42.700;23.360;2023-04-01T07:17:07;94048.44;;;14.27;71.29
3096;BME280;1558;42.700;23.360;2023-04-01T07:19:42;94045.75;;;14.38;71.56
3096;BME280;1558;42.700;23.360;2023-04-01T07:22:21;94054.31;;;14.61;72.82
3096;BME280;1558;42.700;23.360;2023-04-01T07:24:53;94062.06;;;14.66;72.57
3096;BME280;1558;42.700;23.360;2023-04-01T07:27:24;94067.50;;;14.59;72.80
3096;BME280;1558;42.700;23.360;2023-04-01T07:29:53;94056.63;;;14.56;72.93
3096;BME280;1558;42.700;23.360;2023-04-01T07:32:33;94052.34;;;14.41;72.61
3096;BME280;1558;42.700;23.360;2023-04-01T07:35:17;94064.78;;;14.70;73.20
3096;BME280;1558;42.700;23.360;2023-04-01T07:37:59;94068.28;;;14.77;72.76
3096;BME280;1558;42.700;23.360;2023-04-01T07:40:37;94046.94;;;14.72;71.85
3096;BME280;1558;42.700;23.360;2023-04-01T07:43:22;94048.09;;;14.82;70.45
3096;BME280;1558;42.700;23.360;2023-04-01T07:45:59;94056.66;;;14.80;69.58
3096;BME280;1558;42.700;23.360;2023-04-01T07:48:35;93997.69;;;14.60;69.06
3096;BME280;1558;42.700;23.360;2023-04-01T07:51:10;94043.03;;;15.05;68.92
3096;BME280;1558;42.700;23.360;2023-04-01T07:53:46;94004.28;;;14.80;67.91
3096;BME280;1558;42.700;23.360;2023-04-01T07:56:22;94044.59;;;15.03;67.52
3096;BME280;1558;42.700;23.360;2023-04-01T07:59:00;94057.00;;;15.04;67.12
3096;BME280;1558;42.700;23.360;2023-04-01T08:01:32;94046.53;;;15.09;67.35
3096;BME280;1558;42.700;23.360;2023-04-01T08:04:31;94041.84;;;15.17;66.65
3096;BME280;1558;42.700;23.360;2023-04-01T08:07:09;94032.91;;;15.27;66.65
3096;BME280;1558;42.700;23.360;2023-04-01T08:09:44;94023.59;;;15.24;66.22
3096;BME280;1558;42.700;23.360;2023-04-01T08:12:25;94015.81;;;15.26;66.42
3096;BME280;1558;42.700;23.360;2023-04-01T08:15:07;94019.72;;;15.32;66.43
3096;BME280;1558;42.700;23.360;2023-04-01T08:17:46;93971.69;;;14.94;66.29
3096;BME280;1558;42.700;23.360;2023-04-01T08:20:28;93999.13;;;15.31;66.35
3096;BME280;1558;42.700;23.360;2023-04-01T08:23:00;93983.97;;;15.37;66.23
3096;BME280;1558;42.700;23.360;2023-04-01T08:25:32;93986.25;;;15.60;66.13
3096;BME280;1558;42.700;23.360;2023-04-01T08:28:09;93991.28;;;15.69;65.48
3096;BME280;1558;42.700;23.360;2023-04-01T08:30:41;94000.13;;;15.80;65.41
3096;BME280;1558;42.700;23.360;2023-04-01T08:33:15;93984.50;;;15.98;64.49
3096;BME280;1558;42.700;23.360;2023-04-01T08:35:53;93976.53;;;16.28;64.43
3096;BME280;1558;42.700;23.360;2023-04-01T08:38:27;93968.22;;;16.49;63.23
3096;BME280;1558;42.700;23.360;2023-04-01T08:41:01;93961.91;;;16.63;62.44
3096;BME280;1558;42.700;23.360;2023-04-01T08:44:04;93951.81;;;17.01;61.10
3096;BME280;1558;42.700;23.360;2023-04-01T08:46:51;93913.47;;;16.84;59.72
3096;BME280;1558;42.700;23.360;2023-04-01T08:49:41;93936.88;;;17.16;59.24
3096;BME280;1558;42.700;23.360;2023-04-01T08:52:37;93931.53;;;18.76;57.72
3096;BME280;1558;42.700;23.360;2023-04-01T08:55:31;93915.50;;;19.80;54.41
3096;BME280;1558;42.700;23.360;2023-04-01T09:01:15;93919.13;;;19.14;52.70
3096;BME280;1558;42.700;23.360;2023-04-01T09:06:55;93941.94;;;19.04;51.43
3096;BME280;1558;42.700;23.360;2023-04-01T09:12:45;93942.31;;;18.63;51.60
3096;BME280;1558;42.700;23.360;2023-04-01T09:15:42;93933.38;;;18.59;50.60
3096;BME280;1558;42.700;23.360;2023-04-01T09:18:31;93933.25;;;18.66;49.34
3096;BME280;1558;42.700;23.360;2023-04-01T09:21:25;93936.53;;;18.58;48.64
3096;BME280;1558;42.700;23.360;2023-04-01T09:24:26;93924.44;;;18.32;48.43
3096;BME280;1558;42.700;23.360;2023-04-01T09:27:13;93923.53;;;18.39;49.36
3096;BME280;1558;42.700;23.360;2023-04-01T09:30:28;93923.59;;;18.35;48.82
3096;BME280;1558;42.700;23.360;2023-04-01T09:36:04;93904.56;;;18.05;48.13
3096;BME280;1558;42.700;23.360;2023-04-01T09:38:46;93896.19;;;17.92;48.52
3096;BME280;1558;42.700;23.360;2023-04-01T09:41:29;93896.69;;;17.84;48.97
3096;BME280;1558;42.700;23.360;2023-04-01T09:44:02;93906.56;;;17.74;49.42
3096;BME280;1558;42.700;23.360;2023-04-01T09:46:53;93887.78;;;17.80;49.59
3096;BME280;1558;42.700;23.360;2023-04-01T09:49:43;93877.03;;;17.69;49.69
3096;BME280;1558;42.700;23.360;2023-04-01T09:52:24;93869.88;;;17.79;50.17
3096;BME280;1558;42.700;23.360;2023-04-01T09:55:06;93872.91;;;17.84;50.69
3096;BME280;1558;42.700;23.360;2023-04-01T10:01:15;93849.66;;;17.76;50.93
3096;BME280;1558;42.700;23.360;2023-04-01T10:04:22;93853.03;;;17.57;51.64
3096;BME280;1558;42.700;23.360;2023-04-01T10:17:00;93843.03;;;17.47;52.19
3096;BME280;1558;42.700;23.360;2023-04-01T10:20:09;93830.22;;;17.44;52.55
3096;BME280;1558;42.700;23.360;2023-04-01T10:23:20;93836.22;;;17.32;52.93
3096;BME280;1558;42.700;23.360;2023-04-01T10:26:10;93837.41;;;17.01;53.32
3096;BME280;1558;42.700;23.360;2023-04-01T10:32:06;93824.31;;;16.88;53.48
3096;BME280;1558;42.700;23.360;2023-04-01T10:35:09;93822.00;;;16.87;53.71
3096;BME280;1558;42.700;23.360;2023-04-01T10:40:48;93790.59;;;16.42;54.76
3096;BME280;1558;42.700;23.360;2023-04-01T10:43:44;93802.97;;;16.46;55.37
3096;BME280;1558;42.700;23.360;2023-04-01T10:46:40;93808.00;;;16.51;55.01
3096;BME280;1558;42.700;23.360;2023-04-01T10:49:30;93804.91;;;16.49;54.79
3096;BME280;1558;42.700;23.360;2023-04-01T10:55:28;93775.75;;;16.46;54.95
3096;BME280;1558;42.700;23.360;2023-04-01T10:58:24;93781.13;;;16.57;54.72
3096;BME280;1558;42.700;23.360;2023-04-01T11:01:42;93784.22;;;16.59;54.94
3096;BME280;1558;42.700;23.360;2023-04-01T11:07:53;93777.63;;;16.56;54.09
3096;BME280;1558;42.700;23.360;2023-04-01T11:17:08;93775.19;;;16.65;53.75
3096;BME280;1558;42.700;23.360;2023-04-01T11:23:13;93772.38;;;16.72;53.84
3096;BME280;1558;42.700;23.360;2023-04-01T11:26:08;93770.06;;;16.71;53.24
3096;BME280;1558;42.700;23.360;2023-04-01T11:28:55;93786.78;;;16.73;53.56
3096;BME280;1558;42.700;23.360;2023-04-01T11:31:37;93796.88;;;16.72;53.68
3096;BME280;1558;42.700;23.360;2023-04-01T11:34:21;93845.44;;;16.77;53.76
3096;BME280;1558;42.700;23.360;2023-04-01T11:37:03;93842.84;;;16.67;54.25
3096;BME280;1558;42.700;23.360;2023-04-01T11:39:40;93891.13;;;16.59;53.78
3096;BME280;1558;42.700;23.360;2023-04-01T11:42:20;93869.59;;;16.31;56.65
3096;BME280;1558;42.700;23.360;2023-04-01T11:45:00;93894.31;;;16.06;59.46
3096;BME280;1558;42.700;23.360;2023-04-01T11:50:39;93962.56;;;12.63;90.19
3096;BME280;1558;42.700;23.360;2023-04-01T11:53:23;93976.63;;;10.88;100.00
3096;BME280;1558;42.700;23.360;2023-04-01T11:56:08;94007.72;;;10.52;100.00
3096;BME280;1558;42.700;23.360;2023-04-01T11:59:03;94055.09;;;10.31;100.00
3096;BME280;1558;42.700;23.360;2023-04-01T12:01:43;94061.56;;;10.26;100.00
3096;BME280;1558;42.700;23.360;2023-04-01T12:04:30;94070.25;;;10.16;100.00
3096;BME280;1558;42.700;23.360;2023-04-01T12:07:13;94086.03;;;10.17;100.00
3096;BME280;1558;42.700;23.360;2023-04-01T12:09:52;94087.53;;;10.15;100.00
3096;BME280;1558;42.700;23.360;2023-04-01T12:12:29;94070.44;;;10.27;100.00
3096;BME280;1558;42.700;23.360;2023-04-01T12:15:11;94062.63;;;10.44;100.00
3096;BME280;1558;42.700;23.360;2023-04-01T12:17:48;94058.09;;;10.48;100.00
3096;BME280;1558;42.700;23.360;2023-04-01T12:20:40;94044.56;;;10.71;100.00
3096;BME280;1558;42.700;23.360;2023-04-01T12:23:23;94053.66;;;10.85;100.00
3096;BME280;1558;42.700;23.360;2023-04-01T12:26:09;94060.19;;;11.11;100.00
3096;BME280;1558;42.700;23.360;2023-04-01T12:28:49;94063.06;;;11.25;100.00
3096;BME280;1558;42.700;23.360;2023-04-01T12:31:31;94068.53;;;11.02;100.00
3096;BME280;1558;42.700;23.360;2023-04-01T12:34:28;94073.78;;;10.92;100.00
3096;BME280;1558;42.700;23.360;2023-04-01T12:37:09;94084.00;;;10.79;100.00
3096;BME280;1558;42.700;23.360;2023-04-01T12:39:51;94086.66;;;10.53;100.00
3096;BME280;1558;42.700;23.360;2023-04-01T12:42:44;94083.66;;;10.35;100.00
3096;BME280;1558;42.700;23.360;2023-04-01T12:45:32;94088.22;;;10.31;100.00
3096;BME280;1558;42.700;23.360;2023-04-01T12:51:23;94065.47;;;10.29;100.00
3096;BME280;1558;42.700;23.360;2023-04-01T12:54:18;94064.75;;;10.32;100.00
3096;BME280;1558;42.700;23.360;2023-04-01T12:57:02;94070.06;;;10.28;100.00
3096;BME280;1558;42.700;23.360;2023-04-01T12:59:51;94054.69;;;10.29;100.00
3096;BME280;1558;42.700;23.360;2023-04-01T13:02:31;94043.00;;;10.21;100.00
3096;BME280;1558;42.700;23.360;2023-04-01T13:05:30;94020.63;;;10.17;100.00
3096;BME280;1558;42.700;23.360;2023-04-01T13:08:21;94017.97;;;9.98;100.00
3096;BME280;1558;42.700;23.360;2023-04-01T13:11:02;94021.47;;;10.02;100.00
3096;BME280;1558;42.700;23.360;2023-04-01T13:13:47;93995.09;;;9.88;100.00
3096;BME280;1558;42.700;23.360;2023-04-01T13:16:24;93999.69;;;10.10;100.00
3096;BME280;1558;42.700;23.360;2023-04-01T13:18:59;93983.44;;;10.26;100.00
3096;BME280;1558;42.700;23.360;2023-04-01T13:21:42;94002.81;;;10.35;100.00
3096;BME280;1558;42.700;23.360;2023-04-01T13:24:25;94001.13;;;10.50;100.00
3096;BME280;1558;42.700;23.360;2023-04-01T13:27:02;93979.03;;;10.67;100.00
3096;BME280;1558;42.700;23.360;2023-04-01T13:29:36;93976.84;;;10.76;100.00
3096;BME280;1558;42.700;23.360;2023-04-01T13:32:19;93969.63;;;10.83;100.00
3096;BME280;1558;42.700;23.360;2023-04-01T13:35:18;93961.13;;;10.81;100.00
3096;BME280;1558;42.700;23.360;2023-04-01T13:37:57;93951.56;;;10.87;100.00
3096;BME280;1558;42.700;23.360;2023-04-01T13:40:34;93947.66;;;10.81;100.00
3096;BME280;1558;42.700;23.360;2023-04-01T13:43:16;93937.44;;;10.68;100.00
3096;BME280;1558;42.700;23.360;2023-04-01T13:49:16;93920.97;;;10.20;100.00
3096;BME280;1558;42.700;23.360;2023-04-01T13:55:27;93925.53;;;10.43;100.00
3096;BME280;1558;42.700;23.360;2023-04-01T14:01:06;93919.03;;;10.73;100.00
3096;BME280;1558;42.700;23.360;2023-04-01T14:06:53;93917.59;;;10.27;100.00
3096;BME280;1558;42.700;23.360;2023-04-01T14:09:50;93894.22;;;10.35;100.00
3096;BME280;1558;42.700;23.360;2023-04-01T14:12:29;93896.31;;;10.45;100.00
3096;BME280;1558;42.700;23.360;2023-04-01T14:15:14;93907.28;;;10.59;100.00
3096;BME280;1558;42.700;23.360;2023-04-01T14:17:58;93904.88;;;10.54;100.00
3096;BME280;1558;42.700;23.360;2023-04-01T14:20:34;93888.63;;;10.47;100.00
3096;BME280;1558;42.700;23.360;2023-04-01T14:23:17;93888.72;;;10.54;100.00
3096;BME280;1558;42.700;23.360;2023-04-01T14:26:03;93874.75;;;10.45;100.00
3096;BME280;1558;42.700;23.360;2023-04-01T14:28:42;93853.31;;;10.55;100.00
3096;BME280;1558;42.700;23.360;2023-04-01T14:31:31;93844.22;;;10.67;100.00
3096;BME280;1558;42.700;23.360;2023-04-01T14:34:12;93828.84;;;10.71;100.00
3096;BME280;1558;42.700;23.360;2023-04-01T14:36:53;93824.09;;;10.61;100.00
3096;BME280;1558;42.700;23.360;2023-04-01T14:39:38;93838.50;;;10.72;100.00
3096;BME280;1558;42.700;23.360;2023-04-01T14:42:23;93845.72;;;10.98;100.00
3096;BME280;1558;42.700;23.360;2023-04-01T14:45:04;93847.84;;;10.81;100.00
3096;BME280;1558;42.700;23.360;2023-04-01T14:47:43;93852.31;;;10.67;100.00
3096;BME280;1558;42.700;23.360;2023-04-01T14:50:14;93848.03;;;10.62;100.00
3096;BME280;1558;42.700;23.360;2023-04-01T14:52:47;93858.44;;;10.67;100.00
3096;BME280;1558;42.700;23.360;2023-04-01T14:55:27;93850.00;;;10.69;100.00
3096;BME280;1558;42.700;23.360;2023-04-01T14:58:09;93858.09;;;10.69;100.00
3096;BME280;1558;42.700;23.360;2023-04-01T15:00:55;93852.63;;;10.62;100.00
3096;BME280;1558;42.700;23.360;2023-04-01T15:03:29;93863.41;;;10.62;100.00
3096;BME280;1558;42.700;23.360;2023-04-01T15:06:32;93869.28;;;10.41;100.00
3096;BME280;1558;42.700;23.360;2023-04-01T15:09:10;93864.59;;;10.35;100.00
3096;BME280;1558;42.700;23.360;2023-04-01T15:11:51;93865.19;;;10.51;100.00
3096;BME280;1558;42.700;23.360;2023-04-01T15:14:56;93868.63;;;10.48;100.00
3096;BME280;1558;42.700;23.360;2023-04-01T15:17:43;93876.88;;;10.32;100.00
3096;BME280;1558;42.700;23.360;2023-04-01T15:20:33;93868.38;;;10.30;100.00
3096;BME280;1558;42.700;23.360;2023-04-01T15:23:21;93876.63;;;10.41;100.00
3096;BME280;1558;42.700;23.360;2023-04-01T15:28:57;93876.94;;;10.36;100.00
3096;BME280;1558;42.700;23.360;2023-04-01T15:31:33;93856.72;;;10.23;100.00
3096;BME280;1558;42.700;23.360;2023-04-01T15:34:18;93867.59;;;10.30;100.00
3096;BME280;1558;42.700;23.360;2023-04-01T15:36:53;93871.75;;;10.53;100.00
3096;BME280;1558;42.700;23.360;2023-04-01T15:39:31;93861.63;;;10.43;100.00
3096;BME280;1558;42.700;23.360;2023-04-01T15:42:22;93863.13;;;10.41;100.00
3096;BME280;1558;42.700;23.360;2023-04-01T15:45:07;93868.53;;;10.41;100.00
3096;BME280;1558;42.700;23.360;2023-04-01T15:47:45;93878.44;;;10.63;100.00
3096;BME280;1558;42.700;23.360;2023-04-01T15:50:28;93900.00;;;10.93;100.00
3096;BME280;1558;42.700;23.360;2023-04-01T15:53:15;94035.66;;;10.93;100.00
3096;BME280;1558;42.700;23.360;2023-04-01T15:55:52;94085.75;;;10.03;100.00
3096;BME280;1558;42.700;23.360;2023-04-01T15:58:40;94092.47;;;9.52;100.00
3096;BME280;1558;42.700;23.360;2023-04-01T16:01:21;94080.88;;;9.48;100.00
3096;BME280;1558;42.700;23.360;2023-04-01T16:03:58;94076.28;;;9.14;100.00
3096;BME280;1558;42.700;23.360;2023-04-01T16:06:45;94117.72;;;9.28;100.00
3096;BME280;1558;42.700;23.360;2023-04-01T16:09:36;94111.19;;;9.10;100.00
3096;BME280;1558;42.700;23.360;2023-04-01T16:12:15;94119.47;;;8.86;100.00
3096;BME280;1558;42.700;23.360;2023-04-01T16:14:53;94116.00;;;8.85;100.00
3096;BME280;1558;42.700;23.360;2023-04-01T16:17:34;94115.59;;;8.52;100.00